Time;durP1;ratioP1;P1;durP2;ratioP2;P2;SDS_P1;SDS_P2;PMS_P1;PMS_P2;Temp;Humidity;BMP_temperature;BMP_pressure;BME280_temperature;BME280_humidity;BME280_pressure;Samples;Min_cycle;Max_cycle;Signal;HPM_P1;HPM_P2
2022/10/14 00:01:34;;;;;;;3.88;3.47;;;;;;;13.41;54.47;95217.44;5139563;27;20203;-71
2022/10/14 00:04:01;;;;;;;6.30;3.50;;;;;;;13.45;54.77;95217.50;5139522;27;20179;-71
2022/10/14 00:06:29;;;;;;;5.78;3.80;;;;;;;13.40;55.00;95215.84;5139425;27;20183;-72
2022/10/14 00:08:59;;;;;;;5.45;3.70;;;;;;;13.42;55.23;95212.69;5121763;27;20203;-71
2022/10/14 00:11:29;;;;;;;5.32;3.67;;;;;;;13.39;54.90;95211.44;5139320;27;20197;-72
2022/10/14 00:13:58;;;;;;;5.28;3.72;;;;;;;13.34;55.15;95208.19;5121433;27;20202;-72
2022/10/14 00:16:27;;;;;;;4.63;3.10;;;;;;;13.32;55.42;95207.75;5139220;27;20190;-72
2022/10/14 00:18:53;;;;;;;3.63;3.22;;;;;;;13.28;55.13;95204.91;5139209;27;20202;-71
2022/10/14 00:21:20;;;;;;;3.63;3.33;;;;;;;13.29;55.53;95197.41;5139016;27;20210;-71
2022/10/14 00:23:47;;;;;;;3.95;3.10;;;;;;;13.30;55.55;95204.56;5121036;27;20194;-71
2022/10/14 00:26:16;;;;;;;5.78;3.30;;;;;;;13.34;55.83;95205.44;5120660;27;20199;-71
2022/10/14 00:28:44;;;;;;;3.08;2.88;;;;;;;13.37;55.76;95197.19;5120913;27;20203;-71
2022/10/14 00:31:11;;;;;;;4.32;3.10;;;;;;;13.31;55.74;95195.88;5138742;27;20179;-71
2022/10/14 00:33:37;;;;;;;3.35;3.05;;;;;;;13.27;56.38;95202.53;5121084;27;20198;-71
2022/10/14 00:36:08;;;;;;;3.08;2.78;;;;;;;13.28;56.39;95199.38;5138541;27;20604;-70
2022/10/14 00:38:36;;;;;;;2.97;2.78;;;;;;;13.30;56.71;95191.50;5138447;27;20599;-71
2022/10/14 00:41:04;;;;;;;3.42;2.88;;;;;;;13.34;56.54;95195.13;5121004;27;20228;-71
2022/10/14 00:43:53;;;;;;;4.30;3.10;;;;;;;13.36;56.48;95190.03;5120410;27;20217;-71
2022/10/14 00:46:21;;;;;;;3.05;2.70;;;;;;;13.35;56.60;95195.94;5120557;27;20210;-71
2022/10/14 00:48:47;;;;;;;3.63;2.88;;;;;;;13.29;56.80;95192.69;5138339;27;20183;-71
2022/10/14 00:51:15;;;;;;;3.25;2.53;;;;;;;13.28;57.05;95196.59;5120945;27;20210;-71
2022/10/14 00:53:43;;;;;;;3.15;2.72;;;;;;;13.27;57.17;95189.47;5128064;27;20227;-71
2022/10/14 00:56:11;;;;;;;4.18;2.80;;;;;;;13.26;57.27;95187.88;5117851;28;20195;-71
2022/10/14 00:58:38;;;;;;;3.40;2.67;;;;;;;13.22;57.53;95182.25;5099612;28;20199;-71
2022/10/14 01:01:06;;;;;;;3.10;2.72;;;;;;;13.13;58.16;95178.09;5117772;28;20194;-71
2022/10/14 01:03:34;;;;;;;4.32;2.53;;;;;;;13.16;58.12;95171.81;5099220;28;20288;-71
2022/10/14 01:06:04;;;;;;;2.80;2.38;;;;;;;13.19;58.03;95174.66;5099857;28;20196;-71
2022/10/14 01:08:36;;;;;;;2.78;2.40;;;;;;;13.19;57.96;95173.84;5099367;28;20199;-71
2022/10/14 01:11:06;;;;;;;3.45;2.45;;;;;;;13.23;58.07;95174.72;5099837;28;20196;-71
2022/10/14 01:13:36;;;;;;;2.28;2.08;;;;;;;13.24;57.84;95168.84;5117321;28;20226;-71
2022/10/14 01:16:16;;;;;;;2.38;2.17;;;;;;;13.10;58.19;95163.00;5099869;28;20195;-71
2022/10/14 01:18:52;;;;;;;2.55;2.35;;;;;;;13.10;58.47;95157.47;5099460;28;20207;-71
2022/10/14 01:21:25;;;;;;;3.35;2.40;;;;;;;13.15;58.44;95153.63;5099471;28;20196;-71
2022/10/14 01:24:15;;;;;;;2.60;2.13;;;;;;;13.09;58.78;95150.31;5099197;28;20216;-70
2022/10/14 01:27:13;;;;;;;3.30;2.42;;;;;;;13.04;58.88;95152.63;5099779;28;20202;-70
2022/10/14 01:29:55;;;;;;;3.75;2.50;;;;;;;13.00;59.22;95145.03;5117217;28;20196;-71
2022/10/14 01:32:27;;;;;;;3.47;2.67;;;;;;;12.99;59.01;95135.09;5099255;28;20631;-71
2022/10/14 01:34:58;;;;;;;3.63;2.63;;;;;;;12.99;59.66;95137.06;5099186;28;20299;-71
2022/10/14 01:37:29;;;;;;;3.33;2.40;;;;;;;12.96;59.52;95141.41;5098918;28;20638;-71
2022/10/14 01:39:59;;;;;;;3.33;2.35;;;;;;;12.95;59.63;95144.50;5117119;28;20207;-71
2022/10/14 01:42:27;;;;;;;2.45;2.17;;;;;;;12.93;59.79;95138.56;5099062;28;20219;-71
2022/10/14 01:45:06;;;;;;;4.38;2.25;;;;;;;12.96;59.72;95135.88;5116550;28;20191;-71
2022/10/14 01:47:34;;;;;;;2.38;2.10;;;;;;;12.89;59.97;95132.13;5116973;28;20213;-71
2022/10/14 01:50:03;;;;;;;2.40;2.15;;;;;;;12.87;60.09;95134.47;5116815;28;20199;-71
2022/10/14 01:52:35;;;;;;;2.30;2.10;;;;;;;12.84;60.56;95136.00;5098684;28;20192;-71
2022/10/14 01:55:07;;;;;;;1.80;1.70;;;;;;;12.78;61.04;95134.69;5137283;27;20199;-71
2022/10/14 01:57:36;;;;;;;2.30;1.90;;;;;;;12.81;60.87;95135.94;5119528;27;20206;-71
2022/10/14 02:00:06;;;;;;;3.88;2.08;;;;;;;12.74;61.28;95131.88;5136916;27;20175;-70
2022/10/14 02:02:36;;;;;;;2.50;1.92;;;;;;;12.77;61.12;95144.16;5119089;27;20225;-70
2022/10/14 02:05:08;;;;;;;2.47;2.20;;;;;;;12.80;61.46;95137.91;5137257;27;20191;-71
2022/10/14 02:07:40;;;;;;;4.60;2.17;;;;;;;12.80;61.42;95142.66;5119018;27;20219;-71
2022/10/14 02:10:15;;;;;;;2.47;2.20;;;;;;;12.73;61.68;95135.78;5118676;27;20191;-71
2022/10/14 02:12:52;;;;;;;2.65;1.73;;;;;;;12.67;62.25;95128.16;5136966;27;20175;-71
2022/10/14 02:15:27;;;;;;;3.67;2.08;;;;;;;12.65;62.47;95130.50;5118450;27;20202;-71
2022/10/14 02:17:56;;;;;;;2.25;1.85;;;;;;;12.64;62.92;95137.19;5118928;27;20198;-69
2022/10/14 02:20:26;;;;;;;2.00;1.90;;;;;;;12.58;63.34;95147.75;5118372;27;20183;-70
2022/10/14 02:22:57;;;;;;;3.20;2.15;;;;;;;12.55;63.56;95139.38;5136697;27;20264;-70
2022/10/14 02:25:28;;;;;;;2.15;1.88;;;;;;;12.50;64.11;95140.47;5136432;27;20533;-70
2022/10/14 02:27:55;;;;;;;3.15;1.95;;;;;;;12.51;64.14;95126.25;5136742;27;20190;-70
2022/10/14 02:30:23;;;;;;;2.53;1.77;;;;;;;12.54;63.94;95130.28;5136601;27;20206;-70
2022/10/14 02:32:51;;;;;;;1.83;1.60;;;;;;;12.47;64.63;95124.59;5119005;27;20187;-70
2022/10/14 02:35:18;;;;;;;2.13;1.92;;;;;;;12.50;64.56;95132.16;5118609;27;20205;-70
2022/10/14 02:37:46;;;;;;;1.60;1.50;;;;;;;12.49;64.41;95123.06;5136551;27;20211;-70
2022/10/14 02:40:16;;;;;;;2.20;2.00;;;;;;;12.51;64.35;95123.50;5136181;27;20182;-70
2022/10/14 02:42:43;;;;;;;2.22;2.03;;;;;;;12.52;64.46;95114.03;5136403;27;20199;-70
2022/10/14 02:45:11;;;;;;;3.03;2.65;;;;;;;12.49;64.58;95125.00;5136551;27;20175;-69
2022/10/14 02:47:39;;;;;;;2.15;1.95;;;;;;;12.49;64.66;95114.78;5118125;27;20201;-70
2022/10/14 02:50:08;;;;;;;2.20;1.92;;;;;;;12.51;64.77;95126.25;5118322;27;20191;-69
2022/10/14 02:52:34;;;;;;;2.55;1.63;;;;;;;12.48;64.51;95115.91;5135779;27;20191;-70
2022/10/14 02:55:01;;;;;;;2.25;1.88;;;;;;;12.44;65.02;95117.00;5115679;28;20198;-70
2022/10/14 02:57:28;;;;;;;2.17;1.90;;;;;;;12.45;65.23;95121.38;5115805;28;20195;-70
2022/10/14 02:59:55;;;;;;;3.58;2.10;;;;;;;12.46;65.29;95121.03;5097788;28;20191;-70
2022/10/14 03:02:21;;;;;;;3.40;2.03;;;;;;;12.38;65.51;95116.53;5115559;28;20211;-70
2022/10/14 03:04:49;;;;;;;2.10;1.90;;;;;;;12.34;65.37;95117.59;5098116;28;20211;-70
2022/10/14 03:07:16;;;;;;;2.47;2.28;;;;;;;12.36;65.72;95118.84;5098069;28;20503;-70
2022/10/14 03:09:43;;;;;;;1.85;1.75;;;;;;;12.33;65.56;95119.56;5097750;28;20202;-70
2022/10/14 03:12:10;;;;;;;2.13;1.92;;;;;;;12.31;65.78;95115.53;5115316;28;20195;-70
2022/10/14 03:14:36;;;;;;;2.17;1.95;;;;;;;12.35;66.09;95116.44;5115992;28;20188;-70
2022/10/14 03:17:03;;;;;;;2.08;1.90;;;;;;;12.34;65.63;95115.63;5115586;28;20188;-70
2022/10/14 03:19:30;;;;;;;2.55;2.00;;;;;;;12.31;66.22;95118.31;5115427;28;20183;-69
2022/10/14 03:21:58;;;;;;;2.33;2.10;;;;;;;12.28;66.10;95115.13;5097614;28;20199;-70
2022/10/14 03:24:26;;;;;;;2.88;2.00;;;;;;;12.32;66.01;95114.41;5115098;28;20204;-71
2022/10/14 03:26:53;;;;;;;2.20;2.00;;;;;;;12.33;66.48;95113.22;5101042;28;20195;-70
2022/10/14 03:29:20;;;;;;;2.08;1.92;;;;;;;12.32;65.93;95115.19;5119231;28;20183;-70
2022/10/14 03:31:47;;;;;;;2.42;1.85;;;;;;;12.31;65.99;95115.53;5101726;28;20227;-70
2022/10/14 03:34:14;;;;;;;2.65;2.45;;;;;;;12.35;66.14;95113.69;5101559;28;20511;-70
2022/10/14 03:36:41;;;;;;;3.63;2.20;;;;;;;12.30;65.99;95117.50;5119156;28;20187;-70
2022/10/14 03:39:11;;;;;;;2.58;2.00;;;;;;;12.26;66.42;95119.41;5101708;28;20298;-70
2022/10/14 03:41:38;;;;;;;2.42;2.10;;;;;;;12.20;66.44;95118.91;5119408;28;20203;-70
2022/10/14 03:44:05;;;;;;;2.05;1.83;;;;;;;12.20;66.83;95126.38;5101073;28;20226;-70
2022/10/14 03:46:32;;;;;;;2.15;1.88;;;;;;;12.28;66.70;95119.84;5119216;28;20192;-70
2022/10/14 03:48:59;;;;;;;2.10;1.90;;;;;;;12.20;66.76;95112.56;5101462;28;20196;-70
2022/10/14 03:51:26;;;;;;;1.92;1.73;;;;;;;12.15;66.75;95110.88;5100972;28;20203;-70
2022/10/14 03:53:53;;;;;;;2.17;2.08;;;;;;;12.17;66.82;95116.06;5130492;27;20545;-70
2022/10/14 03:56:21;;;;;;;4.40;2.33;;;;;;;12.15;66.74;95110.09;5139600;27;20199;-70
2022/10/14 03:58:48;;;;;;;2.20;2.00;;;;;;;12.14;67.03;95114.81;5139500;27;20194;-69
2022/10/14 04:01:15;;;;;;;2.60;2.30;;;;;;;12.12;67.16;95111.59;5121802;27;20195;-70
2022/10/14 04:03:45;;;;;;;2.40;2.20;;;;;;;12.14;67.14;95108.50;5121668;27;20570;-70
2022/10/14 04:06:12;;;;;;;2.92;2.15;;;;;;;12.12;67.08;95106.06;5121344;27;20294;-70
2022/10/14 04:08:38;;;;;;;2.35;2.15;;;;;;;12.14;67.21;95102.97;5139418;27;20179;-70
2022/10/14 04:11:05;;;;;;;3.22;2.17;;;;;;;12.30;68.05;95098.16;5122098;27;20194;-69
2022/10/14 04:13:57;;;;;;;2.70;2.50;;;;;;;12.35;66.97;95089.59;5136650;27;20202;-70
2022/10/14 04:16:44;;;;;;;2.63;2.42;;;;;;;12.31;66.81;95082.34;5136825;27;20335;-70
2022/10/14 04:19:11;;;;;;;2.70;2.50;;;;;;;12.24;66.70;95083.84;5138936;27;20184;-70
2022/10/14 04:21:38;;;;;;;2.63;2.42;;;;;;;12.27;66.75;95087.81;5138797;27;20179;-70
2022/10/14 04:24:05;;;;;;;2.70;2.50;;;;;;;12.25;66.69;95090.16;5138977;27;20281;-70
2022/10/14 04:26:34;;;;;;;2.80;2.60;;;;;;;12.28;66.83;95092.19;5121066;27;20199;-71
2022/10/14 04:29:02;;;;;;;3.00;2.80;;;;;;;12.28;66.76;95090.22;5139132;27;20194;-70
2022/10/14 04:31:29;;;;;;;3.08;2.88;;;;;;;12.28;66.82;95097.72;5138929;27;20194;-70
2022/10/14 04:33:56;;;;;;;3.20;3.00;;;;;;;12.17;67.33;95099.47;5139231;27;20194;-74
2022/10/14 04:36:22;;;;;;;3.35;2.83;;;;;;;12.17;67.39;95097.50;5138833;27;20194;-71
2022/10/14 04:38:49;;;;;;;3.03;2.83;;;;;;;12.17;67.07;95094.75;5120093;27;20191;-70
2022/10/14 04:41:17;;;;;;;3.40;3.10;;;;;;;12.18;67.10;95090.81;5120616;27;20191;-74
2022/10/14 04:43:43;;;;;;;4.47;3.15;;;;;;;12.16;67.09;95090.34;5121119;27;20226;-73
2022/10/14 04:46:11;;;;;;;3.22;2.92;;;;;;;12.17;66.90;95089.22;5138714;27;20187;-71
2022/10/14 04:48:38;;;;;;;4.43;3.10;;;;;;;12.13;67.28;95087.50;5120727;27;20198;-71
2022/10/14 04:51:05;;;;;;;2.78;2.58;;;;;;;12.11;67.65;95087.09;5120365;27;20236;-70
2022/10/14 04:53:32;;;;;;;2.97;2.70;;;;;;;12.07;67.57;95091.75;5119920;27;20237;-69
2022/10/14 04:55:59;;;;;;;3.30;3.00;;;;;;;12.07;67.53;95078.72;5120192;27;20206;-69
2022/10/14 04:58:26;;;;;;;3.22;2.92;;;;;;;12.12;67.24;95080.38;5120348;27;20202;-69
2022/10/14 05:00:54;;;;;;;3.15;2.85;;;;;;;12.11;67.09;95084.31;5120153;27;20191;-69
2022/10/14 05:03:22;;;;;;;3.55;3.13;;;;;;;12.06;67.36;95081.84;5119920;27;20226;-69
2022/10/14 05:05:50;;;;;;;4.13;3.20;;;;;;;12.04;67.17;95079.44;5120786;27;20191;-69
2022/10/14 05:08:17;;;;;;;3.53;3.03;;;;;;;12.04;67.23;95082.19;5120272;27;20240;-68
2022/10/14 05:10:44;;;;;;;3.40;3.10;;;;;;;12.01;67.33;95069.09;5138304;27;20194;-68
2022/10/14 05:13:10;;;;;;;6.32;3.72;;;;;;;11.97;67.20;95073.75;5120140;27;20244;-68
2022/10/14 05:15:37;;;;;;;3.05;2.80;;;;;;;12.00;66.90;95076.59;5119928;27;20193;-68
2022/10/14 05:18:04;;;;;;;3.17;2.80;;;;;;;12.05;66.64;95069.97;5120172;27;20660;-68
2022/10/14 05:20:33;;;;;;;3.05;2.67;;;;;;;12.03;66.44;95069.56;5120243;27;20227;-68
2022/10/14 05:23:02;;;;;;;2.80;2.58;;;;;;;12.03;66.73;95067.59;5120003;27;20220;-68
2022/10/14 05:25:29;;;;;;;2.63;2.42;;;;;;;12.03;66.71;95078.63;5137934;27;20180;-68
2022/10/14 05:27:56;;;;;;;4.35;3.05;;;;;;;12.01;66.27;95072.66;5120109;27;20210;-70
2022/10/14 05:30:23;;;;;;;3.10;2.50;;;;;;;12.06;65.92;95073.56;5120297;27;20203;-71
2022/10/14 05:32:49;;;;;;;2.83;2.50;;;;;;;12.02;65.68;95068.75;5137913;27;20179;-71
2022/10/14 05:35:16;;;;;;;2.90;2.47;;;;;;;12.10;65.77;95063.38;5119781;27;20195;-70
2022/10/14 05:37:44;;;;;;;2.75;2.55;;;;;;;12.07;65.44;95075.94;5137509;27;20196;-70
2022/10/14 05:40:12;;;;;;;2.65;2.45;;;;;;;12.13;65.27;95076.44;5137645;27;20205;-73
2022/10/14 05:42:38;;;;;;;2.90;2.60;;;;;;;12.11;65.22;95081.56;5137829;27;20190;-71
2022/10/14 05:45:06;;;;;;;3.80;3.00;;;;;;;12.09;65.47;95076.41;5137495;27;20498;-71
2022/10/14 05:47:33;;;;;;;3.00;2.80;;;;;;;12.14;64.89;95081.63;5119444;27;20195;-72
2022/10/14 05:50:02;;;;;;;2.97;2.78;;;;;;;12.15;64.73;95094.28;5119359;27;20190;-73
2022/10/14 05:52:30;;;;;;;2.90;2.60;;;;;;;12.13;65.38;95093.03;5137569;27;20222;-72
2022/10/14 05:54:58;;;;;;;3.88;2.90;;;;;;;12.32;65.39;95083.97;5116907;28;20180;-71
2022/10/14 05:57:26;;;;;;;1.02;1.02;;;;;;;12.36;64.28;95093.16;5098631;28;20211;-72
2022/10/14 05:59:52;;;;;;;2.72;2.30;;;;;;;12.35;64.67;95094.31;5116404;28;20184;-73
2022/10/14 06:02:20;;;;;;;2.75;2.55;;;;;;;12.39;64.02;95109.81;5116766;28;20194;-72
2022/10/14 06:04:47;;;;;;;4.32;3.90;;;;;;;12.41;63.88;95103.91;5098877;28;20214;-72
2022/10/14 06:07:14;;;;;;;4.15;3.85;;;;;;;12.42;64.14;95103.56;5098865;28;20588;-73
2022/10/14 06:09:41;;;;;;;5.03;4.60;;;;;;;12.45;64.20;95104.78;5098554;28;20191;-72
2022/10/14 06:12:10;;;;;;;4.85;3.78;;;;;;;12.40;63.81;95110.63;5116989;28;20188;-71
2022/10/14 06:14:37;;;;;;;4.03;3.63;;;;;;;12.39;64.23;95111.78;5098631;28;20201;-72
2022/10/14 06:17:04;;;;;;;3.42;3.10;;;;;;;12.40;64.04;95114.19;5116141;28;20238;-73
2022/10/14 06:19:31;;;;;;;3.60;3.28;;;;;;;12.45;64.49;95113.88;5098375;28;20200;-72
2022/10/14 06:21:58;;;;;;;4.00;3.60;;;;;;;12.47;64.33;95119.06;5098399;28;20196;-72
2022/10/14 06:24:25;;;;;;;3.33;3.03;;;;;;;12.54;64.88;95127.50;5116322;28;20203;-72
2022/10/14 06:26:51;;;;;;;5.45;3.72;;;;;;;12.57;64.49;95120.47;5098284;28;20199;-73
2022/10/14 06:29:22;;;;;;;4.78;3.70;;;;;;;12.60;64.77;95120.53;5115952;28;20176;-71
2022/10/14 06:31:49;;;;;;;3.85;3.55;;;;;;;12.64;64.39;95121.41;5116230;28;20256;-72
2022/10/14 06:34:16;;;;;;;3.70;3.22;;;;;;;12.64;64.70;95124.16;5098414;28;20192;-72
2022/10/14 06:36:42;;;;;;;5.03;3.42;;;;;;;12.60;65.00;95128.81;5116137;28;20175;-73
2022/10/14 06:39:09;;;;;;;4.68;2.92;;;;;;;12.55;64.62;95131.06;5098229;28;20196;-73
2022/10/14 06:41:38;;;;;;;3.83;2.90;;;;;;;12.50;64.25;95130.19;5116059;28;20184;-72
2022/10/14 06:44:05;;;;;;;4.13;2.70;;;;;;;12.55;64.28;95129.09;5097662;28;20224;-72
2022/10/14 06:46:33;;;;;;;3.42;3.13;;;;;;;12.53;64.42;95131.44;5097791;28;20188;-72
2022/10/14 06:49:00;;;;;;;3.67;3.10;;;;;;;12.53;63.73;95135.00;5115960;28;20197;-72
2022/10/14 06:51:26;;;;;;;3.30;3.00;;;;;;;12.61;64.01;95138.72;5116000;28;20180;-72
2022/10/14 06:53:53;;;;;;;4.18;3.17;;;;;;;12.64;64.04;95123.38;5127313;27;20325;-72
2022/10/14 06:56:20;;;;;;;4.88;3.22;;;;;;;12.66;63.58;95121.81;5136450;27;20187;-72
2022/10/14 06:58:46;;;;;;;4.95;3.10;;;;;;;12.70;63.48;95122.69;5118307;27;20637;-72
2022/10/14 07:01:14;;;;;;;4.40;3.55;;;;;;;12.74;63.32;95123.59;5117495;28;20198;-71
2022/10/14 07:03:42;;;;;;;3.50;3.20;;;;;;;12.80;63.71;95115.75;5136145;27;20210;-71
2022/10/14 07:06:09;;;;;;;4.00;3.53;;;;;;;12.89;63.42;95127.41;5118195;28;20203;-72
2022/10/14 07:08:36;;;;;;;5.13;4.07;;;;;;;12.94;63.20;95118.00;5118399;28;20191;-72
2022/10/14 07:11:03;;;;;;;3.88;3.50;;;;;;;12.87;62.51;95121.44;5118275;28;20194;-73
2022/10/14 07:13:33;;;;;;;4.97;3.90;;;;;;;12.87;62.55;95123.41;5135802;28;20180;-71
2022/10/14 07:16:00;;;;;;;4.38;3.70;;;;;;;12.86;62.65;95114.31;5136365;28;20207;-72
2022/10/14 07:18:27;;;;;;;4.43;3.40;;;;;;;12.82;62.44;95118.97;5136179;28;20190;-72
2022/10/14 07:20:57;;;;;;;3.70;3.30;;;;;;;12.76;62.88;95118.47;5118207;28;20194;-70
2022/10/14 07:23:24;;;;;;;4.43;4.03;;;;;;;12.78;63.37;95126.38;5117613;28;20282;-71
2022/10/14 07:25:52;;;;;;;3.70;3.40;;;;;;;12.77;63.07;95125.59;5135860;28;20212;-72
2022/10/14 07:28:18;;;;;;;4.20;3.80;;;;;;;12.82;63.55;95121.75;5136184;28;20175;-72
2022/10/14 07:30:45;;;;;;;4.70;3.80;;;;;;;12.86;63.18;95121.81;5136083;28;20191;-72
2022/10/14 07:33:12;;;;;;;3.75;3.50;;;;;;;12.81;62.86;95125.66;5117942;28;20198;-71
2022/10/14 07:35:39;;;;;;;3.95;3.60;;;;;;;12.79;63.08;95116.94;5135739;28;20183;-72
2022/10/14 07:38:07;;;;;;;4.25;3.95;;;;;;;12.83;63.27;95114.25;5118096;28;20206;-72
2022/10/14 07:40:34;;;;;;;4.60;4.00;;;;;;;12.89;63.32;95109.97;5118034;28;20219;-72
2022/10/14 07:43:01;;;;;;;4.55;4.00;;;;;;;12.94;62.75;95112.47;5136002;28;20194;-72
2022/10/14 07:45:34;;;;;;;4.55;4.10;;;;;;;12.98;62.75;95105.81;5135525;28;20195;-72
2022/10/14 07:48:00;;;;;;;4.15;3.75;;;;;;;13.07;64.56;95113.09;5118129;28;20206;-72
2022/10/14 07:50:27;;;;;;;6.38;4.22;;;;;;;13.22;65.07;95109.44;5117891;28;20183;-73
2022/10/14 07:52:54;;;;;;;4.75;3.65;;;;;;;13.26;63.20;95110.31;5117721;28;20642;-72
2022/10/14 07:55:22;;;;;;;4.03;3.72;;;;;;;13.20;63.12;95109.78;5118009;28;20199;-74
2022/10/14 07:57:49;;;;;;;4.50;4.10;;;;;;;13.14;62.93;95104.91;5136223;28;20194;-73
2022/10/14 08:00:17;;;;;;;5.57;4.47;;;;;;;13.10;63.30;95113.16;5117982;28;20191;-71
2022/10/14 08:02:44;;;;;;;5.55;4.60;;;;;;;13.08;63.89;95109.19;5117830;28;20642;-71
2022/10/14 08:05:11;;;;;;;5.07;4.53;;;;;;;13.01;63.46;95113.41;5117223;28;20215;-71
2022/10/14 08:07:38;;;;;;;4.35;3.97;;;;;;;12.98;63.62;95113.34;5117757;28;20199;-72
2022/10/14 08:10:05;;;;;;;4.20;3.88;;;;;;;12.86;62.99;95108.78;5117639;28;20195;-68
2022/10/14 08:12:33;;;;;;;6.57;4.65;;;;;;;12.82;63.27;95118.16;5137522;27;20183;-68
2022/10/14 08:15:00;;;;;;;4.85;4.38;;;;;;;12.78;63.36;95112.56;5139312;27;20175;-68
2022/10/14 08:17:27;;;;;;;5.38;4.88;;;;;;;12.81;63.49;95111.03;5139262;27;20191;-69
2022/10/14 08:19:54;;;;;;;5.18;4.47;;;;;;;12.83;63.46;95117.00;5121393;27;20549;-71
2022/10/14 08:22:21;;;;;;;5.35;4.85;;;;;;;12.83;62.68;95114.25;5121180;27;20202;-70
2022/10/14 08:24:48;;;;;;;4.68;4.28;;;;;;;12.85;62.60;95115.47;5121021;27;20233;-70
2022/10/14 08:27:16;;;;;;;4.03;3.63;;;;;;;12.88;62.03;95122.22;5120957;27;20595;-70
2022/10/14 08:29:44;;;;;;;4.20;3.75;;;;;;;12.85;62.38;95118.22;5121470;27;20195;-71
2022/10/14 08:32:11;;;;;;;5.05;3.97;;;;;;;12.83;62.13;95115.03;5138951;27;20262;-71
2022/10/14 08:34:38;;;;;;;3.92;3.63;;;;;;;12.83;62.01;95115.03;5120468;27;20206;-70
2022/10/14 08:37:05;;;;;;;5.57;4.22;;;;;;;12.85;62.27;95118.22;5138997;27;20206;-70
2022/10/14 08:39:34;;;;;;;3.95;3.40;;;;;;;12.85;62.19;95115.47;5138852;27;20194;-69
2022/10/14 08:42:25;;;;;;;4.72;4.32;;;;;;;12.92;62.62;95117.56;5138660;27;20183;-70
2022/10/14 08:44:57;;;;;;;4.60;4.20;;;;;;;12.94;61.96;95118.81;5134924;27;20227;-69
2022/10/14 08:47:34;;;;;;;4.43;4.13;;;;;;;12.99;62.24;95121.25;5120638;27;20199;-69
2022/10/14 08:50:03;;;;;;;4.72;3.90;;;;;;;13.01;61.85;95123.69;5138453;27;20190;-70
2022/10/14 08:52:32;;;;;;;5.32;4.10;;;;;;;13.01;61.12;95123.69;5138565;27;20206;-69
2022/10/14 08:55:02;;;;;;;6.10;4.13;;;;;;;13.04;61.81;95125.72;5138621;27;20188;-70
2022/10/14 08:57:41;;;;;;;4.18;3.72;;;;;;;13.04;60.45;95124.94;5120405;27;20625;-69
2022/10/14 09:00:12;;;;;;;4.30;4.00;;;;;;;13.11;60.88;95125.03;5120437;27;20194;-70
2022/10/14 09:02:43;;;;;;;4.20;3.80;;;;;;;13.16;61.03;95120.00;5138403;27;20191;-70
2022/10/14 09:05:14;;;;;;;6.35;4.13;;;;;;;13.27;61.53;95122.19;5138153;27;20221;-69
2022/10/14 09:07:42;;;;;;;5.05;4.05;;;;;;;13.30;60.16;95125.03;5121081;27;20599;-70
2022/10/14 09:10:14;;;;;;;4.00;3.60;;;;;;;13.33;59.42;95112.41;5138050;27;20214;-70
2022/10/14 09:12:42;;;;;;;4.45;3.35;;;;;;;13.34;58.96;95117.56;5138288;27;20195;-69
2022/10/14 09:15:17;;;;;;;5.63;3.83;;;;;;;13.40;59.39;95112.53;5138188;27;20183;-71
2022/10/14 09:17:48;;;;;;;4.10;3.08;;;;;;;13.45;58.58;95104.69;5120394;27;20195;-70
2022/10/14 09:20:18;;;;;;;6.13;3.33;;;;;;;13.49;58.29;95108.31;5120015;27;20209;-71
2022/10/14 09:22:51;;;;;;;6.68;3.20;;;;;;;13.48;57.39;95108.72;5137924;27;20191;-70
2022/10/14 09:25:18;;;;;;;3.83;3.53;;;;;;;13.49;56.82;95105.56;5137699;27;20203;-69
2022/10/14 09:27:44;;;;;;;4.25;3.20;;;;;;;13.56;56.97;95106.84;5137845;27;20203;-70
2022/10/14 09:30:16;;;;;;;3.55;2.60;;;;;;;13.59;56.59;95098.59;5137904;27;20187;-70
2022/10/14 09:32:45;;;;;;;3.58;3.00;;;;;;;13.63;56.55;95101.44;5120317;27;20183;-71
2022/10/14 09:35:19;;;;;;;3.33;3.03;;;;;;;13.65;56.37;95099.91;5120022;27;20214;-71
2022/10/14 09:37:45;;;;;;;3.80;2.88;;;;;;;13.68;56.28;95095.56;5119586;27;20502;-71
2022/10/14 09:40:18;;;;;;;2.97;2.70;;;;;;;13.73;55.95;95098.03;5137502;27;20205;-70
2022/10/14 09:42:49;;;;;;;3.47;2.97;;;;;;;13.82;56.67;95089.44;5137575;27;20201;-70
2022/10/14 09:45:21;;;;;;;3.78;3.13;;;;;;;13.87;56.02;95095.47;5137114;27;20207;-70
2022/10/14 09:47:52;;;;;;;3.72;3.42;;;;;;;13.93;56.44;95093.97;5119418;27;20213;-71
2022/10/14 09:50:24;;;;;;;4.63;3.20;;;;;;;14.00;57.34;95084.94;5120088;27;20509;-70
2022/10/14 09:52:56;;;;;;;3.65;3.05;;;;;;;14.02;56.73;95093.72;5137152;27;20206;-72
2022/10/14 09:55:24;;;;;;;4.20;2.90;;;;;;;13.99;55.90;95088.91;5137293;27;20265;-72
2022/10/14 09:58:05;;;;;;;3.70;2.92;;;;;;;13.99;56.20;95099.19;5119100;27;20240;-71
2022/10/14 10:00:36;;;;;;;3.78;3.33;;;;;;;13.98;56.81;95095.63;5119646;27;20187;-72
2022/10/14 10:03:05;;;;;;;4.68;3.05;;;;;;;14.11;61.07;95094.22;5119106;27;20195;-72
2022/10/14 10:05:33;;;;;;;5.78;3.63;;;;;;;14.14;55.91;95093.47;5137175;27;20203;-71
2022/10/14 10:08:04;;;;;;;4.78;3.10;;;;;;;14.16;56.62;95093.09;5102015;27;20195;-73
2022/10/14 10:10:33;;;;;;;3.72;3.30;;;;;;;14.27;57.45;95096.84;5137133;27;20183;-73
2022/10/14 10:13:03;;;;;;;3.90;3.55;;;;;;;14.41;56.06;95088.66;5136811;27;20205;-73
2022/10/14 10:15:29;;;;;;;3.88;3.50;;;;;;;14.45;55.91;95086.75;5118846;27;20187;-72
2022/10/14 10:17:58;;;;;;;4.65;3.72;;;;;;;14.52;56.25;95090.81;5118896;27;20199;-72
2022/10/14 10:20:32;;;;;;;4.25;3.60;;;;;;;14.56;55.11;95084.16;5136634;27;20183;-72
2022/10/14 10:23:24;;;;;;;4.15;3.80;;;;;;;14.61;54.75;95075.47;5118822;27;20209;-75
2022/10/14 10:25:51;;;;;;;3.38;3.17;;;;;;;14.67;55.87;95067.63;5118340;27;20646;-72
2022/10/14 10:28:25;;;;;;;3.75;3.53;;;;;;;14.76;54.74;95075.63;5118669;27;20206;-72
2022/10/14 10:31:16;;;;;;;3.53;3.22;;;;;;;14.89;53.44;95077.78;5118760;27;20195;-72
2022/10/14 10:33:51;;;;;;;4.05;3.60;;;;;;;15.03;51.90;95073.53;5137120;27;20186;-73
2022/10/14 10:36:21;;;;;;;3.78;3.42;;;;;;;15.17;52.12;95068.13;5135883;27;20179;-73
2022/10/14 10:38:58;;;;;;;4.63;3.53;;;;;;;15.38;52.00;95059.97;5136904;27;20191;-73
2022/10/14 10:41:47;;;;;;;3.22;2.95;;;;;;;15.61;51.36;95056.19;5136353;27;20198;-72
2022/10/14 10:44:32;;;;;;;4.03;3.72;;;;;;;15.84;53.69;95058.78;5118509;27;20640;-72
2022/10/14 10:47:07;;;;;;;3.83;3.42;;;;;;;15.94;51.39;95049.72;5118558;27;20207;-72
2022/10/14 10:49:56;;;;;;;3.40;3.10;;;;;;;16.06;52.24;95048.59;5118442;27;20191;-72
2022/10/14 10:52:32;;;;;;;5.97;5.45;;;;;;;16.16;50.71;95045.06;5136137;27;20183;-72
2022/10/14 10:55:04;;;;;;;3.38;3.08;;;;;;;16.15;48.28;95054.59;5115982;28;20180;-74
2022/10/14 10:57:48;;;;;;;6.18;3.90;;;;;;;16.20;49.77;95057.00;5097758;28;20530;-71
2022/10/14 11:00:19;;;;;;;3.30;3.00;;;;;;;16.30;49.24;95055.47;5115592;28;20192;-71
2022/10/14 11:03:00;;;;;;;4.05;3.10;;;;;;;16.42;49.28;95049.56;5115953;28;20195;-72
2022/10/14 11:05:52;;;;;;;4.53;3.00;;;;;;;16.46;46.75;95044.00;5097835;28;20219;-71
2022/10/14 11:14:35;;;;;;;3.72;2.40;;;;;;;16.56;46.68;95038.50;5115731;28;20176;-72
2022/10/14 11:17:07;;;;;;;2.75;2.30;;;;;;;16.69;46.73;95038.91;5115628;28;20198;-73
2022/10/14 11:19:39;;;;;;;2.72;2.33;;;;;;;16.80;46.17;95036.19;5115868;28;20184;-73
2022/10/14 11:22:15;;;;;;;2.08;1.98;;;;;;;16.87;42.68;95025.06;5097818;28;20200;-73
2022/10/14 11:24:46;;;;;;;2.63;2.30;;;;;;;16.92;42.30;95021.91;5115884;28;20183;-73
2022/10/14 11:27:17;;;;;;;3.72;2.13;;;;;;;17.00;43.81;95025.50;5115942;28;20188;-74
2022/10/14 11:29:56;;;;;;;1.88;1.77;;;;;;;17.01;41.40;95022.31;5115801;28;20214;-74
2022/10/14 11:32:28;;;;;;;2.78;1.90;;;;;;;17.06;41.59;95009.97;5116142;28;20307;-75
2022/10/14 11:35:05;;;;;;;2.17;1.50;;;;;;;17.05;38.10;95005.59;5116248;28;20188;-73
2022/10/14 11:37:42;;;;;;;1.40;1.30;;;;;;;17.03;38.26;95002.41;5115621;28;20199;-74
2022/10/14 11:40:17;;;;;;;1.88;1.65;;;;;;;17.01;38.58;95002.81;5098074;28;20195;-74
2022/10/14 11:42:55;;;;;;;1.90;1.80;;;;;;;17.04;39.68;94999.25;5097797;28;20210;-73
2022/10/14 11:45:42;;;;;;;1.60;1.50;;;;;;;17.08;38.27;95002.03;5115148;28;20204;-73
2022/10/14 11:48:22;;;;;;;2.55;1.40;;;;;;;17.04;39.01;94990.88;5118903;28;20191;-71
2022/10/14 11:50:52;;;;;;;2.80;1.30;;;;;;;17.03;38.58;94994.03;5119621;28;20187;-71
2022/10/14 11:53:23;;;;;;;1.45;1.45;;;;;;;17.00;39.10;94992.88;5107488;27;20234;-70